createdAt,value
2022-10-06T00:01:55.714Z,8.38
2022-10-06T00:04:41.170Z,8.46
2022-10-06T00:07:26.998Z,8.44
2022-10-06T00:10:12.440Z,8.34
2022-10-06T00:12:58.506Z,8.27
2022-10-06T00:15:43.855Z,8.23
2022-10-06T00:18:30.101Z,8.20
2022-10-06T00:21:16.280Z,8.19
2022-10-06T00:24:01.995Z,8.22
2022-10-06T00:26:47.649Z,8.35
2022-10-06T00:29:32.985Z,8.44
2022-10-06T00:32:18.225Z,8.54
2022-10-06T00:35:04.425Z,8.57
2022-10-06T00:37:50.068Z,8.68
2022-10-06T00:40:35.598Z,8.68
2022-10-06T00:43:42.551Z,8.68
2022-10-06T00:46:35.601Z,8.81
2022-10-06T00:49:28.468Z,8.91
2022-10-06T00:52:21.665Z,8.93
2022-10-06T00:55:09.572Z,8.98
2022-10-06T00:57:55.339Z,9.06
2022-10-06T01:00:44.262Z,9.05
2022-10-06T01:03:42.796Z,9.03
2022-10-06T01:06:28.328Z,9.01
2022-10-06T01:09:16.964Z,9.06
2022-10-06T01:12:05.620Z,9.04
2022-10-06T01:14:52.362Z,9.03
2022-10-06T01:18:02.308Z,9.03
2022-10-06T01:20:57.159Z,9.03
2022-10-06T01:23:42.733Z,9.01
2022-10-06T01:26:31.177Z,8.95
2022-10-06T01:29:17.491Z,8.94
2022-10-06T01:32:03.634Z,8.95
2022-10-06T01:34:49.540Z,9.11
2022-10-06T01:37:35.860Z,9.04
2022-10-06T01:40:22.873Z,9.03
2022-10-06T01:43:08.154Z,9.09
2022-10-06T01:45:57.939Z,9.12
2022-10-06T01:48:43.645Z,9.20
2022-10-06T01:51:31.741Z,9.27
2022-10-06T01:54:16.953Z,9.29
2022-10-06T01:57:02.506Z,9.30
2022-10-06T01:59:52.690Z,9.30
2022-10-06T02:02:41.020Z,9.26
2022-10-06T02:05:26.501Z,9.28
2022-10-06T02:08:13.217Z,9.34
2022-10-06T02:11:04.485Z,9.37
2022-10-06T02:13:50.214Z,9.46
2022-10-06T02:16:36.181Z,9.52
2022-10-06T02:19:21.746Z,9.61
2022-10-06T02:22:07.133Z,9.66
2022-10-06T02:24:52.596Z,9.69
2022-10-06T02:27:39.856Z,9.69
2022-10-06T02:30:27.848Z,9.67
2022-10-06T02:33:13.214Z,9.72
2022-10-06T02:35:59.129Z,9.66
2022-10-06T02:38:46.777Z,9.63
2022-10-06T02:41:32.852Z,9.65
2022-10-06T02:44:18.422Z,9.68
2022-10-06T02:47:04.899Z,9.75
2022-10-06T02:49:51.115Z,9.66
2022-10-06T02:52:38.610Z,9.70
2022-10-06T02:55:24.380Z,9.76
2022-10-06T02:58:09.587Z,9.81
2022-10-06T03:00:54.938Z,9.79
2022-10-06T03:03:41.053Z,9.72
2022-10-06T03:06:29.182Z,9.65
2022-10-06T03:09:23.378Z,9.64
2022-10-06T03:12:10.113Z,9.69
2022-10-06T03:15:01.490Z,9.78
2022-10-06T03:17:50.376Z,9.76
2022-10-06T03:20:35.858Z,9.77
2022-10-06T03:23:21.895Z,9.71
2022-10-06T03:26:08.907Z,9.68
2022-10-06T03:28:55.553Z,9.73
2022-10-06T03:31:43.399Z,9.71
2022-10-06T03:34:30.525Z,9.77
2022-10-06T03:37:19.221Z,9.76
2022-10-06T03:40:05.314Z,9.82
2022-10-06T03:42:50.638Z,9.86
2022-10-06T03:45:36.021Z,9.90
2022-10-06T03:48:21.350Z,9.96
2022-10-06T03:51:11.634Z,10.01
2022-10-06T03:53:59.129Z,10.05
2022-10-06T03:56:46.188Z,10.10
2022-10-06T03:59:34.403Z,10.13
2022-10-06T04:02:22.035Z,10.21
2022-10-06T04:05:08.447Z,10.19
2022-10-06T04:07:53.707Z,10.18
2022-10-06T04:10:39.017Z,10.11
2022-10-06T04:13:24.844Z,10.12
2022-10-06T04:16:18.326Z,10.18
2022-10-06T04:19:06.501Z,10.28
2022-10-06T04:21:52.264Z,10.35
2022-10-06T04:24:40.980Z,10.45
2022-10-06T04:27:29.200Z,10.43
2022-10-06T04:30:21.502Z,10.36
2022-10-06T04:33:07.479Z,10.31
2022-10-06T04:36:04.658Z,10.24
2022-10-06T04:39:02.786Z,10.25
2022-10-06T04:41:50.184Z,10.37
2022-10-06T04:44:40.532Z,10.43
2022-10-06T04:47:25.893Z,10.43
2022-10-06T04:50:11.367Z,10.47
2022-10-06T04:53:04.949Z,10.54
2022-10-06T04:56:11.123Z,10.59
2022-10-06T04:58:58.023Z,10.63
2022-10-06T05:01:44.029Z,10.54
2022-10-06T05:04:32.042Z,10.49
2022-10-06T05:07:17.511Z,10.38
2022-10-06T05:10:03.440Z,10.30
2022-10-06T05:12:50.253Z,10.23
2022-10-06T05:15:35.940Z,10.21
2022-10-06T05:18:21.890Z,10.14
2022-10-06T05:21:11.332Z,10.07
2022-10-06T05:23:57.570Z,10.06
2022-10-06T05:26:43.271Z,10.03
2022-10-06T05:29:32.204Z,10.08
2022-10-06T05:32:17.481Z,10.11
2022-10-06T05:35:03.006Z,10.15
2022-10-06T05:37:48.513Z,10.16
2022-10-06T05:40:34.679Z,10.17
2022-10-06T05:43:20.055Z,10.27
2022-10-06T05:46:09.018Z,10.38
2022-10-06T05:49:00.371Z,10.46
2022-10-06T05:51:49.161Z,10.53
2022-10-06T05:54:45.833Z,10.60
2022-10-06T05:57:31.466Z,10.59
2022-10-06T06:00:17.826Z,10.55
2022-10-06T06:03:09.069Z,10.47
2022-10-06T06:05:54.959Z,10.40
2022-10-06T06:08:40.531Z,10.34
2022-10-06T06:11:27.973Z,10.33
2022-10-06T06:14:17.880Z,10.27
2022-10-06T06:17:05.509Z,10.19
2022-10-06T06:19:51.331Z,10.10
2022-10-06T06:22:36.746Z,9.98
2022-10-06T06:25:23.960Z,9.86
2022-10-06T06:28:09.369Z,9.84
2022-10-06T06:31:03.000Z,9.93
2022-10-06T06:33:52.065Z,9.95
2022-10-06T06:36:45.091Z,9.93
2022-10-06T06:39:34.049Z,9.90
2022-10-06T06:42:19.347Z,9.93
2022-10-06T06:45:09.333Z,9.94
2022-10-06T06:47:59.285Z,9.95
2022-10-06T06:50:44.662Z,9.83
2022-10-06T06:53:31.824Z,9.80
2022-10-06T06:56:21.504Z,9.77
2022-10-06T06:59:09.195Z,9.79
2022-10-06T07:01:54.786Z,9.87
2022-10-06T07:04:41.645Z,9.91
2022-10-06T07:07:29.143Z,9.99
2022-10-06T07:10:14.649Z,10.08
2022-10-06T07:13:00.484Z,10.21
2022-10-06T07:16:07.448Z,10.30
2022-10-06T07:19:11.597Z,10.39
2022-10-06T07:22:17.072Z,10.49
2022-10-06T07:25:12.986Z,10.58
2022-10-06T07:28:02.675Z,10.67
2022-10-06T07:30:52.967Z,10.73
2022-10-06T07:33:40.976Z,10.83
2022-10-06T07:36:27.560Z,10.94
2022-10-06T07:39:13.039Z,11.02
2022-10-06T07:41:58.496Z,11.11
2022-10-06T07:45:05.630Z,11.24
2022-10-06T07:47:58.828Z,11.37
2022-10-06T07:50:47.958Z,11.47
2022-10-06T07:53:37.439Z,11.56
2022-10-06T07:56:37.633Z,11.66
2022-10-06T07:59:23.171Z,11.69
2022-10-06T08:02:08.710Z,11.73
2022-10-06T08:04:54.844Z,11.81
2022-10-06T08:07:41.164Z,11.90
2022-10-06T08:10:26.945Z,11.94
2022-10-06T08:13:12.571Z,11.96
2022-10-06T08:16:08.004Z,11.97
2022-10-06T08:18:54.923Z,11.96
2022-10-06T08:21:40.798Z,11.91
2022-10-06T08:24:30.537Z,11.88
2022-10-06T08:27:19.308Z,11.82
2022-10-06T08:30:07.327Z,11.78
2022-10-06T08:32:52.939Z,11.76
2022-10-06T08:35:39.669Z,11.73
2022-10-06T08:38:25.111Z,11.70
2022-10-06T08:41:21.240Z,11.65
2022-10-06T08:44:16.147Z,11.62
2022-10-06T08:47:05.786Z,11.63
2022-10-06T08:49:55.158Z,11.66
2022-10-06T08:53:21.865Z,11.70
2022-10-06T08:56:20.739Z,11.74
2022-10-06T08:59:08.338Z,11.77
2022-10-06T09:01:54.917Z,11.80
2022-10-06T09:04:40.814Z,11.85
2022-10-06T09:07:42.212Z,12.04
2022-10-06T09:10:50.470Z,12.27
2022-10-06T09:14:05.188Z,12.54
2022-10-06T09:16:57.403Z,12.67
2022-10-06T09:19:45.692Z,12.69
2022-10-06T09:22:32.950Z,12.70
2022-10-06T09:25:22.171Z,12.72
2022-10-06T09:28:15.927Z,12.77
2022-10-06T09:31:03.552Z,12.84
2022-10-06T09:33:53.331Z,12.95
2022-10-06T09:37:01.274Z,13.17
2022-10-06T09:39:51.156Z,13.39
2022-10-06T09:42:36.649Z,13.54
2022-10-06T09:45:25.601Z,13.66
2022-10-06T09:48:20.983Z,13.76
2022-10-06T09:51:13.426Z,13.88
2022-10-06T09:54:17.312Z,13.92
2022-10-06T09:57:28.925Z,13.95
2022-10-06T10:00:36.087Z,14.08
2022-10-06T10:03:22.805Z,14.20
2022-10-06T10:06:09.179Z,14.20
2022-10-06T10:09:23.937Z,14.23
2022-10-06T10:12:24.584Z,14.23
2022-10-06T10:15:10.481Z,14.25
2022-10-06T10:17:59.186Z,14.37
2022-10-06T10:20:52.839Z,14.53
2022-10-06T10:23:42.735Z,14.72
2022-10-06T10:27:13.485Z,14.99
2022-10-06T10:30:14.866Z,15.20
2022-10-06T10:33:18.882Z,15.34
2022-10-06T10:36:06.824Z,15.51
2022-10-06T10:38:54.431Z,15.58
2022-10-06T10:41:52.414Z,15.44
2022-10-06T10:44:47.634Z,15.38
2022-10-06T10:47:43.652Z,15.38
2022-10-06T10:50:43.271Z,15.38
2022-10-06T10:53:59.839Z,15.48
2022-10-06T10:56:49.290Z,15.56
2022-10-06T10:59:48.135Z,15.60
2022-10-06T11:02:35.796Z,15.62
2022-10-06T11:05:33.846Z,15.61
2022-10-06T11:08:45.648Z,15.81
2022-10-06T11:11:51.962Z,15.92
2022-10-06T11:15:03.596Z,15.95
2022-10-06T11:17:50.936Z,15.97
2022-10-06T11:21:06.187Z,16.10
2022-10-06T11:24:03.228Z,16.19
2022-10-06T11:27:26.782Z,16.19
2022-10-06T11:30:18.409Z,16.21
2022-10-06T11:33:13.779Z,16.15
2022-10-06T11:36:02.398Z,16.23
2022-10-06T11:38:56.734Z,16.39
2022-10-06T11:41:49.523Z,16.48
2022-10-06T11:44:44.535Z,16.47
2022-10-06T11:48:00.597Z,16.30
2022-10-06T11:50:49.300Z,16.22
2022-10-06T11:53:35.181Z,16.25
2022-10-06T11:56:20.867Z,16.25
2022-10-06T11:59:27.502Z,16.39
2022-10-06T12:02:33.213Z,16.45
2022-10-06T12:08:39.467Z,16.58
2022-10-06T12:11:42.470Z,16.57
2022-10-06T12:16:32.534Z,16.52
2022-10-06T12:18:07.646Z,16.56
2022-10-06T12:21:08.316Z,16.64
2022-10-06T12:24:06.394Z,16.91
2022-10-06T12:27:34.940Z,17.05
2022-10-06T12:30:33.864Z,16.91
2022-10-06T12:33:26.589Z,16.83
2022-10-06T12:36:28.398Z,16.97
2022-10-06T12:39:24.657Z,17.02
2022-10-06T12:42:20.756Z,17.01
2022-10-06T12:45:16.958Z,16.94
2022-10-06T12:48:06.853Z,16.86
2022-10-06T12:51:03.059Z,16.83
2022-10-06T12:54:03.796Z,16.86
2022-10-06T12:57:02.821Z,16.90
2022-10-06T12:59:49.607Z,16.96
2022-10-06T13:02:35.072Z,17.17
2022-10-06T13:05:20.672Z,17.23
2022-10-06T13:08:20.973Z,17.24
2022-10-06T13:11:12.798Z,17.41
2022-10-06T13:14:08.051Z,17.54
2022-10-06T13:16:53.368Z,17.73
2022-10-06T13:19:44.278Z,17.92
2022-10-06T13:22:29.778Z,17.52
2022-10-06T13:25:16.533Z,17.38
2022-10-06T13:28:02.607Z,17.31
2022-10-06T13:30:57.549Z,17.29
2022-10-06T13:33:45.353Z,17.23
2022-10-06T13:36:34.656Z,17.14
2022-10-06T13:39:22.652Z,17.00
2022-10-06T13:42:17.726Z,16.86
2022-10-06T13:45:04.054Z,16.69
2022-10-06T13:48:06.308Z,16.53
2022-10-06T13:50:55.632Z,16.43
2022-10-06T13:53:46.181Z,16.46
2022-10-06T13:56:38.937Z,16.43
2022-10-06T13:59:37.232Z,16.12
2022-10-06T14:02:32.435Z,15.62
2022-10-06T14:05:29.830Z,15.16
2022-10-06T14:08:27.821Z,14.70
2022-10-06T14:11:13.141Z,14.51
2022-10-06T14:14:02.468Z,14.44
2022-10-06T14:16:53.412Z,14.37
2022-10-06T14:19:42.826Z,14.41
2022-10-06T14:22:34.519Z,14.82
2022-10-06T14:25:19.942Z,15.16
2022-10-06T14:28:05.434Z,15.22
2022-10-06T14:30:50.972Z,15.25
2022-10-06T14:33:36.391Z,15.33
2022-10-06T14:36:30.972Z,15.41
2022-10-06T14:39:16.677Z,15.55
2022-10-06T14:42:01.953Z,16.08
2022-10-06T14:44:48.288Z,16.40
2022-10-06T14:47:33.719Z,16.72
2022-10-06T14:50:19.182Z,16.89
2022-10-06T14:53:05.031Z,16.97
2022-10-06T14:55:50.331Z,16.87
2022-10-06T14:58:42.562Z,16.87
2022-10-06T15:01:29.403Z,17.04
2022-10-06T15:04:20.519Z,17.06
2022-10-06T15:07:24.429Z,16.97
2022-10-06T15:10:10.011Z,16.71
2022-10-06T15:12:57.063Z,16.62
2022-10-06T15:15:42.877Z,16.53
2022-10-06T15:18:28.442Z,16.36
2022-10-06T15:21:13.821Z,16.33
2022-10-06T15:24:01.573Z,16.53
2022-10-06T15:27:05.855Z,16.71
2022-10-06T15:29:51.441Z,16.63
2022-10-06T15:32:37.222Z,16.84
2022-10-06T15:35:22.594Z,16.81
2022-10-06T15:38:08.110Z,16.77
2022-10-06T15:41:02.636Z,16.64
2022-10-06T15:43:55.226Z,16.57
2022-10-06T15:46:45.991Z,16.49
2022-10-06T15:49:33.171Z,16.44
2022-10-06T15:52:19.031Z,16.20
2022-10-06T15:55:05.283Z,16.09
2022-10-06T15:57:53.008Z,15.91
2022-10-06T16:00:38.167Z,15.79
2022-10-06T16:03:41.068Z,15.72
2022-10-06T16:06:41.654Z,15.67
2022-10-06T16:09:30.604Z,15.65
2022-10-06T16:12:19.266Z,15.62
2022-10-06T16:15:05.079Z,15.61
2022-10-06T16:17:50.532Z,15.60
2022-10-06T16:20:35.934Z,15.76
2022-10-06T16:23:24.359Z,16.00
2022-10-06T16:26:09.746Z,15.93
2022-10-06T16:28:55.295Z,15.72
2022-10-06T16:31:41.237Z,15.52
2022-10-06T16:34:27.110Z,15.37
2022-10-06T16:37:12.724Z,15.27
2022-10-06T16:39:58.488Z,15.24
2022-10-06T16:42:45.806Z,15.25
2022-10-06T16:45:31.582Z,15.22
2022-10-06T16:48:16.896Z,15.20
2022-10-06T16:51:11.673Z,15.10
2022-10-06T16:53:59.611Z,14.94
2022-10-06T16:56:48.349Z,14.89
2022-10-06T16:59:33.751Z,14.80
2022-10-06T17:02:19.366Z,14.67
2022-10-06T17:05:05.641Z,14.46
2022-10-06T17:07:53.488Z,14.31
2022-10-06T17:10:41.357Z,14.23
2022-10-06T17:13:27.215Z,14.21
2022-10-06T17:16:16.106Z,14.19
2022-10-06T17:19:02.474Z,14.20
2022-10-06T17:21:51.604Z,14.21
2022-10-06T17:24:39.723Z,14.22
2022-10-06T17:27:28.673Z,14.19
2022-10-06T17:30:15.572Z,14.15
2022-10-06T17:33:02.251Z,14.11
2022-10-06T17:35:48.679Z,14.05
2022-10-06T17:38:36.589Z,14.02
2022-10-06T17:41:29.621Z,13.96
2022-10-06T17:44:21.385Z,13.85
2022-10-06T17:47:07.571Z,13.72
2022-10-06T17:49:52.891Z,13.75
2022-10-06T17:52:38.947Z,13.82
2022-10-06T17:55:28.042Z,13.87
2022-10-06T17:58:17.908Z,13.88
2022-10-06T18:01:07.404Z,13.89
2022-10-06T18:03:55.388Z,13.92
2022-10-06T18:06:42.060Z,13.95
2022-10-06T18:09:27.476Z,13.93
2022-10-06T18:12:13.032Z,13.92
2022-10-06T18:14:58.395Z,13.85
2022-10-06T18:17:43.922Z,13.85
2022-10-06T18:20:31.653Z,13.87
2022-10-06T18:23:17.151Z,13.83
2022-10-06T18:26:06.015Z,13.74
2022-10-06T18:28:51.388Z,13.70
2022-10-06T18:31:38.161Z,13.65
2022-10-06T18:37:29.138Z,13.46
2022-10-06T18:40:14.978Z,13.34
2022-10-06T18:43:00.755Z,13.26
2022-10-06T18:46:04.709Z,13.13
2022-10-06T18:48:58.386Z,13.04
2022-10-06T18:51:52.597Z,13.03
2022-10-06T18:54:44.544Z,13.05
2022-10-06T18:57:29.852Z,13.07
2022-10-06T19:00:15.499Z,13.14
2022-10-06T19:03:01.245Z,13.18
2022-10-06T19:05:53.052Z,13.18
2022-10-06T19:08:38.567Z,13.20
2022-10-06T19:11:42.147Z,13.20
2022-10-06T19:14:35.368Z,13.12
2022-10-06T19:17:22.960Z,13.00
2022-10-06T19:20:10.952Z,12.91
2022-10-06T19:22:56.395Z,12.86
2022-10-06T19:25:41.705Z,12.77
2022-10-06T19:28:30.827Z,12.73
2022-10-06T19:31:20.071Z,12.62
2022-10-06T19:34:08.579Z,12.58
2022-10-06T19:36:54.875Z,12.53
2022-10-06T19:39:43.434Z,12.56
2022-10-06T19:42:47.369Z,12.54
2022-10-06T19:45:32.987Z,12.53
2022-10-06T19:48:20.306Z,12.49
2022-10-06T19:51:14.217Z,12.45
2022-10-06T19:53:59.596Z,12.44
2022-10-06T19:56:46.477Z,12.43
2022-10-06T19:59:32.155Z,12.46
2022-10-06T20:02:17.674Z,12.56
2022-10-06T20:05:03.084Z,12.48
2022-10-06T20:07:48.660Z,12.48
2022-10-06T20:10:34.867Z,12.53
2022-10-06T20:13:20.696Z,12.54
2022-10-06T20:16:10.338Z,12.59
2022-10-06T20:18:55.641Z,12.62
2022-10-06T20:21:41.589Z,12.61
2022-10-06T20:24:27.947Z,12.58
2022-10-06T20:27:13.929Z,12.44
2022-10-06T20:29:59.463Z,12.37
2022-10-06T20:32:44.862Z,12.29
2022-10-06T20:35:30.479Z,12.30
2022-10-06T20:38:16.212Z,12.26
2022-10-06T20:41:01.816Z,12.20
2022-10-06T20:43:47.491Z,12.18
2022-10-06T20:46:35.593Z,12.23
2022-10-06T20:49:22.096Z,12.24
2022-10-06T20:52:10.153Z,12.25
2022-10-06T20:54:55.938Z,12.28
2022-10-06T20:57:42.618Z,12.31
2022-10-06T21:00:28.003Z,12.36
2022-10-06T21:03:14.152Z,12.47
2022-10-06T21:06:00.183Z,12.50
2022-10-06T21:08:46.681Z,12.43
2022-10-06T21:11:32.400Z,12.38
2022-10-06T21:14:18.442Z,12.36
2022-10-06T21:17:04.407Z,12.36
2022-10-06T21:19:50.427Z,12.35
2022-10-06T21:22:35.938Z,12.36
2022-10-06T21:25:21.400Z,12.38
2022-10-06T21:28:07.191Z,12.34
2022-10-06T21:30:55.487Z,12.31
2022-10-06T21:33:42.734Z,12.34
2022-10-06T21:36:31.345Z,12.30
2022-10-06T21:39:16.919Z,12.34
2022-10-06T21:42:02.578Z,12.25
2022-10-06T21:44:48.081Z,12.17
2022-10-06T21:47:34.709Z,12.17
2022-10-06T21:50:20.123Z,12.15
2022-10-06T21:53:06.046Z,12.12
2022-10-06T21:55:53.817Z,12.07
2022-10-06T21:58:39.187Z,12.05
2022-10-06T22:01:28.059Z,12.08
2022-10-06T22:04:15.016Z,12.13
2022-10-06T22:07:00.436Z,12.13
2022-10-06T22:09:45.988Z,12.10
2022-10-06T22:12:31.422Z,12.07
2022-10-06T22:15:17.053Z,12.15
2022-10-06T22:18:02.702Z,12.14
2022-10-06T22:20:48.116Z,12.07
2022-10-06T22:23:33.626Z,12.03
2022-10-06T22:26:19.272Z,12.00
2022-10-06T22:29:07.170Z,12.02
2022-10-06T22:31:52.869Z,11.96
2022-10-06T22:34:38.440Z,11.90
2022-10-06T22:37:24.147Z,11.92
2022-10-06T22:40:10.414Z,11.94
2022-10-06T22:42:56.116Z,11.94
2022-10-06T22:45:41.584Z,11.97
2022-10-06T22:48:27.304Z,11.99
2022-10-06T22:51:12.971Z,12.00
2022-10-06T22:54:00.002Z,12.02
2022-10-06T22:56:46.041Z,11.99
2022-10-06T22:59:31.406Z,11.93
2022-10-06T23:02:16.741Z,11.89
2022-10-06T23:05:02.098Z,11.94
2022-10-06T23:07:47.715Z,11.96
2022-10-06T23:10:36.881Z,11.90
2022-10-06T23:13:22.513Z,11.86
2022-10-06T23:16:10.395Z,11.86
2022-10-06T23:18:55.914Z,11.87
2022-10-06T23:21:41.397Z,11.85
2022-10-06T23:24:26.937Z,11.87
2022-10-06T23:27:14.260Z,11.88
2022-10-06T23:30:00.595Z,11.86
2022-10-06T23:32:46.115Z,11.84
2022-10-06T23:35:31.610Z,11.83
2022-10-06T23:38:17.015Z,11.81
2022-10-06T23:41:02.582Z,11.86
2022-10-06T23:43:48.253Z,11.89
2022-10-06T23:46:33.821Z,11.90
2022-10-06T23:49:19.509Z,11.93
2022-10-06T23:52:05.079Z,11.99
2022-10-06T23:54:50.334Z,12.05
2022-10-06T23:57:35.692Z,12.06
